createdAt,value
2018-08-19T00:01:19.203Z,30.13
2018-08-19T00:03:48.537Z,29.98
2018-08-19T00:06:20.101Z,30.30
2018-08-19T00:08:49.519Z,30.79
2018-08-19T00:11:20.322Z,30.27
2018-08-19T00:13:56.661Z,30.39
2018-08-19T00:16:27.739Z,30.28
2018-08-19T00:18:57.861Z,29.88
2018-08-19T00:21:29.217Z,30.41
2018-08-19T00:23:59.468Z,31.07
2018-08-19T00:26:29.688Z,30.79
2018-08-19T00:29:00.757Z,30.46
2018-08-19T00:31:34.554Z,30.32
2018-08-19T00:34:05.165Z,30.16
2018-08-19T00:36:36.533Z,30.70
2018-08-19T00:39:08.661Z,30.68
2018-08-19T00:41:40.532Z,30.78
2018-08-19T00:44:10.718Z,29.86
2018-08-19T00:46:42.596Z,30.81
2018-08-19T00:49:14.453Z,31.13
2018-08-19T00:51:49.740Z,30.96
2018-08-19T00:54:20.488Z,31.17
2018-08-19T00:56:56.002Z,31.22
2018-08-19T00:59:30.696Z,30.19
2018-08-19T01:02:01.341Z,30.55
2018-08-19T01:04:31.449Z,30.25
2018-08-19T01:07:03.217Z,30.79
2018-08-19T01:09:34.266Z,31.62
2018-08-19T01:12:05.979Z,32.18
2018-08-19T01:14:38.447Z,32.00
2018-08-19T01:17:10.165Z,32.17
2018-08-19T01:19:42.943Z,32.51
2018-08-19T01:22:14.567Z,32.27
2018-08-19T01:24:45.050Z,32.03
2018-08-19T01:27:15.995Z,32.33
2018-08-19T01:29:46.293Z,32.70
2018-08-19T01:32:19.184Z,31.78
2018-08-19T01:34:49.018Z,32.00
2018-08-19T01:37:20.051Z,32.27
2018-08-19T01:39:51.936Z,32.30
2018-08-19T01:42:22.272Z,33.06
2018-08-19T01:44:52.130Z,32.52
2018-08-19T01:47:22.386Z,32.90
2018-08-19T01:49:51.814Z,32.56
2018-08-19T01:52:21.160Z,32.72
2018-08-19T01:54:50.455Z,33.02
2018-08-19T01:57:21.662Z,33.82
2018-08-19T01:59:52.025Z,33.23
2018-08-19T02:02:21.338Z,32.99
2018-08-19T02:04:57.084Z,33.56
2018-08-19T02:07:29.500Z,33.60
2018-08-19T02:10:04.632Z,33.85
2018-08-19T02:12:39.035Z,34.28
2018-08-19T02:15:12.011Z,34.44
2018-08-19T02:17:46.513Z,34.33
2018-08-19T02:20:16.942Z,33.97
2018-08-19T02:22:52.243Z,34.13
2018-08-19T02:25:25.954Z,34.46
2018-08-19T02:27:55.808Z,34.68
2018-08-19T02:30:25.115Z,35.09
2018-08-19T02:32:55.864Z,35.21
2018-08-19T02:35:25.161Z,34.59
2018-08-19T02:37:55.003Z,34.16
2018-08-19T02:40:32.146Z,34.07
2018-08-19T02:43:02.926Z,34.20
2018-08-19T02:45:34.174Z,34.56
2018-08-19T02:48:05.330Z,34.16
2018-08-19T02:50:34.927Z,33.94
2018-08-19T02:53:04.797Z,34.92
2018-08-19T02:55:34.053Z,35.22
2018-08-19T02:58:08.692Z,35.13
2018-08-19T03:00:40.361Z,35.45
2018-08-19T03:03:09.894Z,34.82
2018-08-19T03:05:41.565Z,35.06
2018-08-19T03:08:15.238Z,35.53
2018-08-19T03:10:44.662Z,35.36
2018-08-19T03:13:14.618Z,35.83
2018-08-19T03:15:45.514Z,36.28
2018-08-19T03:18:15.353Z,36.81
2018-08-19T03:20:46.495Z,36.07
2018-08-19T03:23:16.043Z,36.36
2018-08-19T03:25:46.243Z,36.69
2018-08-19T03:28:15.891Z,36.94
2018-08-19T03:30:50.575Z,36.19
2018-08-19T03:33:21.769Z,37.45
2018-08-19T03:35:51.052Z,37.35
2018-08-19T03:38:20.392Z,37.40
2018-08-19T03:40:49.768Z,36.72
2018-08-19T03:43:19.673Z,36.84
2018-08-19T03:45:49.021Z,37.16
2018-08-19T03:48:19.218Z,36.95
2018-08-19T03:50:48.654Z,37.42
2018-08-19T03:53:18.757Z,37.04
2018-08-19T03:55:48.879Z,36.77
2018-08-19T03:58:18.685Z,36.90
2018-08-19T04:00:49.325Z,36.87
2018-08-19T04:03:23.935Z,37.09
2018-08-19T04:05:56.174Z,37.14
2018-08-19T04:08:40.391Z,38.12
2018-08-19T04:11:10.538Z,37.66
2018-08-19T04:13:41.276Z,38.10
2018-08-19T04:16:12.247Z,37.54
2018-08-19T04:18:43.665Z,38.01
2018-08-19T04:21:14.132Z,38.29
2018-08-19T04:23:45.625Z,37.99
2018-08-19T04:26:16.344Z,38.00
2018-08-19T04:28:46.625Z,38.36
2018-08-19T04:31:21.033Z,38.78
2018-08-19T04:33:51.118Z,38.34
2018-08-19T04:36:23.677Z,38.25
2018-08-19T04:38:54.103Z,38.71
2018-08-19T04:41:24.831Z,38.10
2018-08-19T04:43:57.647Z,37.89
2018-08-19T04:46:47.281Z,37.60
2018-08-19T04:49:17.763Z,38.02
2018-08-19T04:51:49.095Z,37.85
2018-08-19T04:54:21.720Z,36.97
2018-08-19T04:56:54.472Z,35.71
2018-08-19T04:59:28.019Z,35.36
2018-08-19T05:02:00.688Z,35.25
2018-08-19T05:04:35.240Z,33.89
2018-08-19T05:07:13.084Z,34.09
2018-08-19T05:09:45.893Z,33.32
2018-08-19T05:12:20.098Z,32.91
2018-08-19T05:14:52.826Z,32.59
2018-08-19T05:17:25.463Z,32.02
2018-08-19T05:20:07.480Z,31.88
2018-08-19T05:22:41.284Z,31.50
2018-08-19T05:25:15.642Z,30.26
2018-08-19T05:27:53.730Z,30.40
2018-08-19T05:30:27.536Z,30.00
2018-08-19T05:33:03.881Z,28.98
2018-08-19T05:35:36.998Z,28.42
2018-08-19T05:38:10.006Z,28.60
2018-08-19T05:40:55.024Z,27.49
2018-08-19T05:43:26.448Z,27.32
2018-08-19T05:46:02.639Z,26.65
2018-08-19T05:48:34.647Z,25.74
2018-08-19T05:51:06.712Z,25.48
2018-08-19T05:53:42.935Z,24.79
2018-08-19T05:56:16.216Z,25.57
2018-08-19T05:58:49.364Z,25.22
2018-08-19T06:01:27.535Z,25.07
2018-08-19T06:03:59.881Z,24.34
2018-08-19T06:06:32.039Z,24.87
2018-08-19T06:09:05.223Z,25.09
2018-08-19T06:11:40.245Z,24.62
2018-08-19T06:14:17.228Z,24.64
2018-08-19T06:16:50.642Z,24.28
2018-08-19T06:19:24.119Z,23.76
2018-08-19T06:21:56.907Z,23.41
2018-08-19T06:26:55.250Z,22.73
2018-08-19T06:29:39.660Z,22.13
2018-08-19T06:32:17.006Z,21.63
2018-08-19T06:34:50.238Z,21.09
2018-08-19T06:37:23.187Z,21.58
2018-08-19T06:39:55.016Z,20.81
2018-08-19T06:42:29.272Z,20.69
2018-08-19T06:45:00.734Z,21.18
2018-08-19T06:47:33.877Z,21.37
2018-08-19T06:50:15.759Z,20.94
2018-08-19T06:52:50.692Z,20.17
2018-08-19T06:55:23.380Z,20.16
2018-08-19T06:58:02.486Z,19.52
2018-08-19T07:00:35.912Z,19.74
2018-08-19T07:03:09.890Z,19.84
2018-08-19T07:05:44.798Z,20.06
2018-08-19T07:08:18.799Z,19.81
2018-08-19T07:10:54.734Z,19.96
2018-08-19T07:13:25.794Z,20.05
2018-08-19T07:16:02.804Z,20.29
2018-08-19T07:18:35.527Z,20.03
2018-08-19T07:21:08.872Z,19.45
2018-08-19T07:23:43.702Z,19.42
2018-08-19T07:26:18.085Z,19.73
2018-08-19T07:28:51.777Z,19.80
2018-08-19T07:31:26.694Z,18.66
2018-08-19T07:34:00.395Z,18.97
2018-08-19T07:36:33.204Z,18.92
2018-08-19T07:39:08.922Z,19.09
2018-08-19T07:41:42.524Z,19.25
2018-08-19T07:44:18.009Z,18.82
2018-08-19T07:46:51.953Z,19.06
2018-08-19T07:49:28.457Z,18.45
2018-08-19T07:52:00.950Z,19.09
2018-08-19T07:54:34.617Z,19.12
2018-08-19T07:57:13.414Z,19.37
2018-08-19T07:59:49.545Z,18.98
2018-08-19T08:02:22.299Z,18.23
2018-08-19T08:04:59.432Z,18.40
2018-08-19T08:07:34.881Z,18.46
2018-08-19T08:10:09.092Z,18.32
2018-08-19T08:12:43.570Z,18.03
2018-08-19T08:15:28.290Z,18.52
2018-08-19T08:18:00.531Z,18.42
2018-08-19T08:20:35.210Z,18.94
2018-08-19T08:23:21.259Z,18.59
2018-08-19T08:25:54.887Z,19.29
2018-08-19T08:28:28.224Z,18.29
2018-08-19T08:31:00.642Z,18.35
2018-08-19T08:33:36.134Z,18.39
2018-08-19T08:36:12.273Z,18.04
2018-08-19T08:38:46.599Z,18.11
2018-08-19T08:41:19.317Z,18.80
2018-08-19T08:43:51.791Z,18.05
2018-08-19T08:46:26.341Z,18.60
2018-08-19T08:49:02.712Z,18.90
2018-08-19T08:51:37.320Z,18.99
2018-08-19T08:54:13.020Z,19.20
2018-08-19T08:56:46.517Z,19.07
2018-08-19T08:59:21.761Z,19.31
2018-08-19T09:01:54.490Z,19.86
2018-08-19T09:04:29.015Z,19.49
2018-08-19T09:07:01.262Z,18.83
2018-08-19T09:09:31.645Z,19.58
2018-08-19T09:12:06.173Z,18.63
2018-08-19T09:14:40.635Z,19.27
2018-08-19T09:17:17.855Z,19.14
2018-08-19T09:19:52.651Z,18.86
2018-08-19T09:22:24.921Z,19.03
2018-08-19T09:24:58.697Z,18.37
2018-08-19T09:27:33.200Z,18.27
2018-08-19T09:30:49.167Z,17.68
2018-08-19T09:33:30.284Z,18.18
2018-08-19T09:36:11.337Z,18.96
2018-08-19T09:38:44.258Z,18.44
2018-08-19T09:41:19.483Z,17.84
2018-08-19T09:43:53.026Z,18.42
2018-08-19T09:46:26.377Z,17.96
2018-08-19T09:49:00.633Z,17.85
2018-08-19T09:51:33.760Z,18.10
2018-08-19T09:54:07.073Z,17.86
2018-08-19T09:56:45.429Z,18.15
2018-08-19T09:59:21.711Z,17.81
2018-08-19T10:01:57.468Z,17.48
2018-08-19T10:04:32.979Z,17.30
2018-08-19T10:07:11.572Z,16.77
2018-08-19T10:09:46.987Z,16.88
2018-08-19T10:12:21.424Z,17.24
2018-08-19T10:14:55.980Z,17.01
2018-08-19T10:17:30.240Z,17.01
2018-08-19T10:20:03.178Z,16.78
2018-08-19T10:22:42.024Z,16.99
2018-08-19T10:25:20.739Z,17.11
2018-08-19T10:27:55.943Z,16.51
2018-08-19T10:30:31.555Z,16.03
2018-08-19T10:33:11.914Z,16.25
2018-08-19T10:35:45.281Z,16.45
2018-08-19T10:38:20.063Z,16.09
2018-08-19T10:41:07.471Z,14.98
2018-08-19T10:43:40.590Z,16.16
2018-08-19T10:46:14.765Z,15.21
2018-08-19T10:48:59.991Z,14.88
2018-08-19T10:51:32.528Z,15.15
2018-08-19T10:54:05.522Z,16.01
2018-08-19T10:56:40.414Z,14.54
2018-08-19T10:59:17.477Z,14.64
2018-08-19T11:01:51.007Z,14.85
2018-08-19T11:04:24.449Z,14.86
2018-08-19T11:06:58.296Z,15.08
2018-08-19T11:09:33.655Z,14.57
2018-08-19T11:12:07.195Z,14.42
2018-08-19T11:14:42.011Z,14.68
2018-08-19T11:17:16.360Z,14.89
2018-08-19T11:19:55.618Z,14.22
2018-08-19T11:22:31.703Z,14.91
2018-08-19T11:25:08.644Z,15.15
2018-08-19T11:27:41.410Z,15.73
2018-08-19T11:30:22.757Z,16.30
2018-08-19T11:32:56.500Z,15.42
2018-08-19T11:35:34.773Z,16.03
2018-08-19T11:38:08.020Z,15.55
2018-08-19T11:40:49.842Z,15.37
2018-08-19T11:43:25.917Z,14.84
2018-08-19T11:46:00.380Z,14.90
2018-08-19T11:48:34.670Z,15.89
2018-08-19T11:51:09.711Z,15.56
2018-08-19T11:53:42.795Z,16.35
2018-08-19T11:56:15.848Z,16.71
2018-08-19T11:58:52.978Z,15.80
2018-08-19T12:01:27.749Z,15.38
2018-08-19T12:04:08.489Z,16.16
2018-08-19T12:06:42.906Z,15.68
2018-08-19T12:09:21.999Z,15.46
2018-08-19T12:11:56.341Z,15.85
2018-08-19T12:14:30.461Z,15.59
2018-08-19T12:17:05.427Z,14.97
2018-08-19T12:19:43.612Z,14.81
2018-08-19T12:22:25.373Z,15.44
2018-08-19T12:25:02.618Z,14.72
2018-08-19T12:27:38.736Z,15.56
2018-08-19T12:30:23.392Z,15.59
2018-08-19T12:33:05.087Z,15.03
2018-08-19T12:35:40.604Z,14.99
2018-08-19T12:38:16.315Z,14.65
2018-08-19T12:40:52.797Z,14.51
2018-08-19T12:43:37.828Z,14.41
2018-08-19T12:46:27.467Z,14.29
2018-08-19T12:51:52.505Z,13.55
2018-08-19T12:54:28.539Z,13.85
2018-08-19T12:57:05.357Z,14.38
2018-08-19T12:59:45.440Z,14.48
2018-08-19T13:02:31.468Z,14.55
2018-08-19T13:05:07.709Z,15.10
2018-08-19T13:07:50.996Z,14.47
2018-08-19T13:10:38.134Z,15.16
2018-08-19T13:13:14.311Z,15.20
2018-08-19T13:15:54.517Z,14.83
2018-08-19T13:21:18.811Z,14.73
2018-08-19T13:23:56.975Z,15.10
2018-08-19T13:26:32.292Z,14.58
2018-08-19T13:29:09.520Z,14.97
2018-08-19T13:31:46.908Z,15.49
2018-08-19T13:34:33.188Z,15.18
2018-08-19T13:37:10.865Z,14.76
2018-08-19T13:39:51.214Z,14.98
2018-08-19T13:42:27.295Z,14.74
2018-08-19T13:45:18.322Z,14.74
2018-08-19T13:47:56.938Z,14.36
2018-08-19T13:50:30.733Z,13.94
2018-08-19T13:53:12.856Z,14.32
2018-08-19T13:55:47.330Z,15.35
2018-08-19T13:58:23.387Z,14.51
2018-08-19T14:00:55.686Z,14.52
2018-08-19T14:03:31.411Z,14.22
2018-08-19T14:06:09.244Z,14.54
2018-08-19T14:08:47.733Z,14.08
2018-08-19T14:11:25.026Z,14.50
2018-08-19T14:14:00.320Z,14.52
2018-08-19T14:16:44.302Z,14.82
2018-08-19T14:19:19.817Z,15.28
2018-08-19T14:22:01.685Z,14.32
2018-08-19T14:24:36.809Z,14.62
2018-08-19T14:27:14.370Z,14.04
2018-08-19T14:29:52.536Z,13.56
2018-08-19T14:32:39.683Z,13.70
2018-08-19T14:35:15.490Z,13.66
2018-08-19T14:37:56.437Z,14.23
2018-08-19T14:40:31.677Z,13.10
2018-08-19T14:43:10.219Z,13.08
2018-08-19T14:45:48.060Z,13.12
2018-08-19T14:48:27.565Z,12.65
2018-08-19T14:51:01.155Z,12.96
2018-08-19T14:53:34.013Z,13.94
2018-08-19T14:56:18.907Z,13.20
2018-08-19T14:59:00.990Z,13.83
2018-08-19T15:01:35.955Z,13.26
2018-08-19T15:04:17.750Z,13.13
2018-08-19T15:06:52.214Z,12.63
2018-08-19T15:09:34.650Z,13.39
2018-08-19T15:12:22.731Z,12.92
2018-08-19T15:15:04.372Z,13.21
2018-08-19T15:17:40.073Z,12.04
2018-08-19T15:20:21.730Z,11.86
2018-08-19T15:23:06.939Z,12.74
2018-08-19T15:25:42.911Z,11.99
2018-08-19T15:28:20.273Z,12.16
2018-08-19T15:31:03.365Z,12.27
2018-08-19T15:33:40.548Z,12.74
2018-08-19T15:36:15.487Z,12.95
2018-08-19T15:38:50.939Z,12.77
2018-08-19T15:41:27.516Z,12.35
2018-08-19T15:44:03.733Z,12.76
2018-08-19T15:46:38.533Z,12.39
2018-08-19T15:49:15.650Z,12.24
2018-08-19T15:51:49.268Z,11.79
2018-08-19T15:54:25.841Z,12.60
2018-08-19T15:57:08.609Z,12.80
2018-08-19T15:59:40.847Z,13.14
2018-08-19T16:02:17.588Z,14.39
2018-08-19T16:04:59.927Z,13.44
2018-08-19T16:07:37.614Z,14.01
2018-08-19T16:10:11.740Z,12.93
2018-08-19T16:12:51.626Z,13.16
2018-08-19T16:15:34.024Z,12.75
2018-08-19T16:18:10.347Z,13.14
2018-08-19T16:20:45.857Z,13.37
2018-08-19T16:23:20.927Z,12.66
2018-08-19T16:25:56.583Z,12.97
2018-08-19T16:28:31.406Z,12.59
2018-08-19T16:31:04.709Z,13.48
2018-08-19T16:33:39.048Z,13.32
2018-08-19T16:36:12.220Z,12.82
2018-08-19T16:38:48.066Z,13.17
2018-08-19T16:41:22.636Z,13.77
2018-08-19T16:43:58.613Z,13.91
2018-08-19T16:46:31.848Z,13.96
2018-08-19T16:49:09.082Z,13.97
2018-08-19T16:51:42.046Z,13.77
2018-08-19T16:54:19.168Z,13.41
2018-08-19T16:56:54.359Z,13.14
2018-08-19T16:59:29.028Z,13.23
2018-08-19T17:02:01.290Z,13.22
2018-08-19T17:04:40.352Z,14.01
2018-08-19T17:07:15.480Z,13.05
2018-08-19T17:09:49.662Z,13.22
2018-08-19T17:12:26.241Z,13.75
2018-08-19T17:15:06.372Z,13.29
2018-08-19T17:17:38.641Z,13.58
2018-08-19T17:20:16.450Z,13.71
2018-08-19T17:22:53.691Z,13.29
2018-08-19T17:25:30.396Z,13.79
2018-08-19T17:28:08.532Z,13.48
2018-08-19T17:31:00.518Z,13.35
2018-08-19T17:36:27.836Z,14.21
2018-08-19T17:39:10.705Z,14.48
2018-08-19T17:41:44.541Z,15.51
2018-08-19T17:44:20.504Z,14.64
2018-08-19T17:46:57.549Z,15.60
2018-08-19T17:49:32.764Z,14.79
2018-08-19T17:52:09.346Z,15.35
2018-08-19T17:54:41.090Z,15.29
2018-08-19T17:57:18.735Z,16.30
2018-08-19T17:59:52.453Z,16.13
2018-08-19T18:02:25.288Z,15.80
2018-08-19T18:05:01.564Z,16.40
2018-08-19T18:07:37.008Z,15.97
2018-08-19T18:10:15.077Z,17.15
2018-08-19T18:12:49.981Z,18.32
2018-08-19T18:15:29.821Z,18.54
2018-08-19T18:18:07.110Z,19.09
2018-08-19T18:20:43.269Z,18.75
2018-08-19T18:23:22.955Z,19.68
2018-08-19T18:25:57.869Z,19.19
2018-08-19T18:28:36.681Z,19.61
2018-08-19T18:31:11.309Z,20.39
2018-08-19T18:33:52.381Z,20.17
2018-08-19T18:36:27.205Z,19.60
2018-08-19T18:39:01.292Z,20.69
2018-08-19T18:41:37.901Z,21.40
2018-08-19T18:44:11.124Z,21.04
2018-08-19T18:46:45.927Z,21.08
2018-08-19T18:49:19.568Z,20.84
2018-08-19T18:51:55.904Z,21.52
2018-08-19T18:54:31.123Z,21.61
2018-08-19T18:57:06.429Z,21.70
2018-08-19T18:59:42.538Z,22.21
2018-08-19T19:02:18.669Z,22.35
2018-08-19T19:04:52.729Z,22.10
2018-08-19T19:07:27.633Z,22.59
2018-08-19T19:09:59.342Z,22.55
2018-08-19T19:12:34.331Z,22.75
2018-08-19T19:15:06.594Z,23.36
2018-08-19T19:17:42.940Z,23.66
2018-08-19T19:20:16.623Z,23.11
2018-08-19T19:22:55.329Z,23.57
2018-08-19T19:25:32.356Z,23.42
2018-08-19T19:28:07.319Z,23.43
2018-08-19T19:30:38.236Z,23.65
2018-08-19T19:33:14.117Z,23.43
2018-08-19T19:35:47.066Z,23.23
2018-08-19T19:38:22.505Z,23.62
2018-08-19T19:40:57.563Z,24.78
2018-08-19T19:43:34.254Z,23.91
2018-08-19T19:46:06.614Z,24.71
2018-08-19T19:48:40.512Z,24.25
2018-08-19T19:51:11.137Z,24.68
2018-08-19T19:53:45.092Z,24.66
2018-08-19T19:56:17.328Z,25.87
2018-08-19T19:58:50.652Z,25.68
2018-08-19T20:01:25.766Z,25.72
2018-08-19T20:03:59.927Z,25.90
2018-08-19T20:06:36.908Z,26.89
2018-08-19T20:09:14.846Z,26.66
2018-08-19T20:11:50.075Z,26.89
2018-08-19T20:14:21.967Z,27.65
2018-08-19T20:17:08.785Z,27.56
2018-08-19T20:19:44.243Z,27.19
2018-08-19T20:22:21.285Z,27.84
2018-08-19T20:25:03.651Z,27.52
2018-08-19T20:27:36.880Z,27.61
2018-08-19T20:30:08.453Z,27.29
2018-08-19T20:32:43.697Z,27.79
2018-08-19T20:35:14.557Z,27.17
2018-08-19T20:37:45.659Z,27.91
2018-08-19T20:40:16.570Z,27.62
2018-08-19T20:42:49.832Z,27.71
2018-08-19T20:45:22.650Z,27.25
2018-08-19T20:47:56.513Z,27.86
2018-08-19T20:50:27.642Z,27.69
2018-08-19T20:52:58.963Z,27.87
2018-08-19T20:55:28.241Z,28.69
2018-08-19T20:57:59.285Z,28.26
2018-08-19T21:00:28.472Z,28.73
2018-08-19T21:03:01.669Z,29.49
2018-08-19T21:05:31.430Z,29.48
2018-08-19T21:08:08.135Z,29.54
2018-08-19T21:10:41.971Z,28.93
2018-08-19T21:13:14.738Z,29.23
2018-08-19T21:15:47.376Z,29.61
2018-08-19T21:18:17.885Z,29.70
2018-08-19T21:20:48.061Z,29.42
2018-08-19T21:23:21.457Z,29.34
2018-08-19T21:25:57.056Z,29.70
2018-08-19T21:28:36.211Z,29.90
2018-08-19T21:31:06.442Z,30.44
2018-08-19T21:33:40.583Z,29.59
2018-08-19T21:36:12.377Z,30.24
2018-08-19T21:38:43.496Z,29.88
2018-08-19T21:41:17.872Z,29.92
2018-08-19T21:43:48.725Z,29.98
2018-08-19T21:46:21.017Z,29.93
2018-08-19T21:48:58.535Z,29.42
2018-08-19T21:51:30.473Z,29.62
2018-08-19T21:54:02.462Z,30.57
2018-08-19T21:56:33.155Z,30.71
2018-08-19T21:59:06.751Z,30.28
2018-08-19T22:01:43.603Z,30.76
2018-08-19T22:04:13.758Z,30.55
2018-08-19T22:06:44.710Z,30.92
2018-08-19T22:09:28.132Z,30.71
2018-08-19T22:11:58.879Z,30.94
2018-08-19T22:14:29.519Z,30.58
2018-08-19T22:17:05.577Z,30.65
2018-08-19T22:19:36.089Z,31.16
2018-08-19T22:22:07.625Z,31.51
2018-08-19T22:24:38.717Z,30.51
2018-08-19T22:27:13.677Z,31.29
2018-08-19T22:29:46.536Z,31.27
2018-08-19T22:32:19.628Z,31.06
2018-08-19T22:34:50.600Z,31.46
2018-08-19T22:37:33.983Z,31.37
2018-08-19T22:40:04.433Z,30.91
2018-08-19T22:42:35.296Z,31.44
2018-08-19T22:45:11.768Z,31.62
2018-08-19T22:47:45.669Z,31.60
2018-08-19T22:50:17.327Z,32.29
2018-08-19T22:52:51.515Z,31.74
2018-08-19T22:55:28.978Z,32.12
2018-08-19T22:58:02.875Z,31.98
2018-08-19T23:00:38.738Z,32.17
2018-08-19T23:03:13.637Z,32.24
2018-08-19T23:05:47.369Z,31.59
2018-08-19T23:08:22.258Z,32.71
2018-08-19T23:10:52.595Z,31.98
2018-08-19T23:13:35.548Z,32.08
2018-08-19T23:16:09.273Z,32.31
2018-08-19T23:18:43.093Z,32.44
2018-08-19T23:21:13.673Z,32.96
2018-08-19T23:23:42.934Z,32.93
2018-08-19T23:26:13.511Z,32.72
2018-08-19T23:28:44.554Z,32.49
2018-08-19T23:31:14.664Z,33.18
2018-08-19T23:33:45.058Z,33.09
2018-08-19T23:36:16.793Z,32.41
2018-08-19T23:38:46.053Z,32.58
2018-08-19T23:41:15.394Z,33.34
2018-08-19T23:43:45.249Z,32.76
2018-08-19T23:46:15.394Z,33.07
2018-08-19T23:48:44.661Z,33.07
2018-08-19T23:51:19.301Z,33.47
2018-08-19T23:53:49.552Z,33.45
2018-08-19T23:56:19.476Z,33.62
2018-08-19T23:58:49.116Z,34.38
